sensor_id;sensor_type;location;lat;lon;timestamp;pressure;altitude;pressure_sealevel;temperature;humidity
18569;BME280;14780;48.316;-1.050;2022-11-15T00:00:14;98224.16;;;23.50;48.18
18569;BME280;14780;48.316;-1.050;2022-11-15T00:02:59;98212.13;;;23.51;48.02
18569;BME280;14780;48.316;-1.050;2022-11-15T00:05:45;98216.78;;;23.51;48.03
18569;BME280;14780;48.316;-1.050;2022-11-15T00:08:31;98202.31;;;23.50;48.01
18569;BME280;14780;48.316;-1.050;2022-11-15T00:11:16;98206.69;;;23.51;48.04
18569;BME280;14780;48.316;-1.050;2022-11-15T00:14:00;98188.69;;;23.50;47.97
18569;BME280;14780;48.316;-1.050;2022-11-15T00:16:47;98186.47;;;23.52;47.93
18569;BME280;14780;48.316;-1.050;2022-11-15T00:19:31;98181.03;;;23.47;47.88
18569;BME280;14780;48.316;-1.050;2022-11-15T00:22:16;98176.66;;;23.51;47.90
18569;BME280;14780;48.316;-1.050;2022-11-15T00:25:01;98165.44;;;23.53;47.87
18569;BME280;14780;48.316;-1.050;2022-11-15T00:27:45;98161.88;;;23.52;47.94
18569;BME280;14780;48.316;-1.050;2022-11-15T00:30:30;98152.06;;;23.51;47.81
18569;BME280;14780;48.316;-1.050;2022-11-15T00:33:15;98148.22;;;23.52;47.72
18569;BME280;14780;48.316;-1.050;2022-11-15T00:36:05;98149.06;;;23.53;47.69
18569;BME280;14780;48.316;-1.050;2022-11-15T00:38:50;98137.31;;;23.52;47.75
18569;BME280;14780;48.316;-1.050;2022-11-15T00:41:35;98133.97;;;23.55;47.75
18569;BME280;14780;48.316;-1.050;2022-11-15T00:44:19;98122.56;;;23.53;47.75
18569;BME280;14780;48.316;-1.050;2022-11-15T00:47:04;98119.53;;;23.55;47.67
18569;BME280;14780;48.316;-1.050;2022-11-15T00:49:48;98114.88;;;23.55;47.70
18569;BME280;14780;48.316;-1.050;2022-11-15T00:52:33;98105.28;;;23.58;47.57
18569;BME280;14780;48.316;-1.050;2022-11-15T00:55:19;98108.63;;;23.55;47.48
18569;BME280;14780;48.316;-1.050;2022-11-15T00:58:04;98094.38;;;23.58;47.64
18569;BME280;14780;48.316;-1.050;2022-11-15T01:00:48;98094.69;;;23.56;47.54
18569;BME280;14780;48.316;-1.050;2022-11-15T01:03:34;98084.56;;;23.57;47.43
18569;BME280;14780;48.316;-1.050;2022-11-15T01:06:18;98082.09;;;23.55;47.45
18569;BME280;14780;48.316;-1.050;2022-11-15T01:09:03;98071.41;;;23.59;47.53
18569;BME280;14780;48.316;-1.050;2022-11-15T01:11:48;98060.50;;;23.59;47.34
18569;BME280;14780;48.316;-1.050;2022-11-15T01:14:33;98058.06;;;23.57;47.47
18569;BME280;14780;48.316;-1.050;2022-11-15T01:17:17;98047.66;;;23.59;47.39
18569;BME280;14780;48.316;-1.050;2022-11-15T01:20:03;98045.75;;;23.60;47.18
18569;BME280;14780;48.316;-1.050;2022-11-15T01:22:48;98042.47;;;23.58;47.41
18569;BME280;14780;48.316;-1.050;2022-11-15T01:25:33;98035.13;;;23.58;47.30
18569;BME280;14780;48.316;-1.050;2022-11-15T01:28:17;98023.91;;;23.60;47.23
18569;BME280;14780;48.316;-1.050;2022-11-15T01:31:04;98021.47;;;23.58;47.23
18569;BME280;14780;48.316;-1.050;2022-11-15T01:33:49;98026.09;;;23.58;47.27
18569;BME280;14780;48.316;-1.050;2022-11-15T01:36:34;98014.38;;;23.57;47.16
18569;BME280;14780;48.316;-1.050;2022-11-15T01:39:19;98019.84;;;23.57;47.25
18569;BME280;14780;48.316;-1.050;2022-11-15T01:42:04;98011.13;;;23.55;47.16
18569;BME280;14780;48.316;-1.050;2022-11-15T01:44:50;98002.34;;;23.58;47.18
18569;BME280;14780;48.316;-1.050;2022-11-15T01:47:40;98000.75;;;23.57;47.03
18569;BME280;14780;48.316;-1.050;2022-11-15T01:50:30;97998.00;;;23.57;46.97
18569;BME280;14780;48.316;-1.050;2022-11-15T01:53:18;97994.97;;;23.59;47.14
18569;BME280;14780;48.316;-1.050;2022-11-15T01:56:07;97995.28;;;23.57;46.99
18569;BME280;14780;48.316;-1.050;2022-11-15T01:58:55;97999.63;;;23.58;46.93
18569;BME280;14780;48.316;-1.050;2022-11-15T02:01:41;97984.03;;;23.59;47.17
18569;BME280;14780;48.316;-1.050;2022-11-15T02:04:28;97973.94;;;23.59;47.05
18569;BME280;14780;48.316;-1.050;2022-11-15T02:07:19;97960.78;;;23.61;47.01
18569;BME280;14780;48.316;-1.050;2022-11-15T02:10:13;97968.69;;;23.63;47.05
18569;BME280;14780;48.316;-1.050;2022-11-15T02:12:59;97956.44;;;23.60;46.97
18569;BME280;14780;48.316;-1.050;2022-11-15T02:41:03;97902.06;;;23.64;46.74
18569;BME280;14780;48.316;-1.050;2022-11-15T02:46:56;97894.69;;;23.64;46.65
18569;BME280;14780;48.316;-1.050;2022-11-15T02:50:07;97893.06;;;23.63;46.81
18569;BME280;14780;48.316;-1.050;2022-11-15T02:52:52;97889.22;;;23.64;46.79
18569;BME280;14780;48.316;-1.050;2022-11-15T02:55:43;97887.59;;;23.63;46.71
18569;BME280;14780;48.316;-1.050;2022-11-15T02:58:46;97876.06;;;23.66;46.71
18569;BME280;14780;48.316;-1.050;2022-11-15T03:01:46;97879.31;;;23.68;46.74
18569;BME280;14780;48.316;-1.050;2022-11-15T03:04:55;97856.44;;;23.64;46.60
18569;BME280;14780;48.316;-1.050;2022-11-15T03:14:00;97848.75;;;23.66;46.63
18569;BME280;14780;48.316;-1.050;2022-11-15T03:19:44;97830.75;;;23.65;46.66
18569;BME280;14780;48.316;-1.050;2022-11-15T03:22:33;97836.44;;;23.69;46.50
18569;BME280;14780;48.316;-1.050;2022-11-15T03:25:22;97832.88;;;23.68;46.59
18569;BME280;14780;48.316;-1.050;2022-11-15T03:28:11;97837.84;;;23.66;46.51
18569;BME280;14780;48.316;-1.050;2022-11-15T03:30:57;97824.69;;;23.68;46.55
18569;BME280;14780;48.316;-1.050;2022-11-15T03:33:44;97817.31;;;23.69;46.58
18569;BME280;14780;48.316;-1.050;2022-11-15T03:36:30;97816.50;;;23.68;46.57
18569;BME280;14780;48.316;-1.050;2022-11-15T03:39:16;97801.22;;;23.67;46.51
18569;BME280;14780;48.316;-1.050;2022-11-15T03:42:27;97794.06;;;23.71;46.47
18569;BME280;14780;48.316;-1.050;2022-11-15T03:45:28;97790.50;;;23.71;46.32
18569;BME280;14780;48.316;-1.050;2022-11-15T03:48:23;97787.00;;;23.70;46.42
18569;BME280;14780;48.316;-1.050;2022-11-15T03:51:09;97798.91;;;23.74;46.33
18569;BME280;14780;48.316;-1.050;2022-11-15T03:53:55;97785.25;;;23.74;46.35
18569;BME280;14780;48.316;-1.050;2022-11-15T03:56:40;97786.38;;;23.73;46.43
18569;BME280;14780;48.316;-1.050;2022-11-15T03:59:24;97758.25;;;23.73;46.38
18569;BME280;14780;48.316;-1.050;2022-11-15T04:02:09;97743.78;;;23.72;46.32
18569;BME280;14780;48.316;-1.050;2022-11-15T04:04:54;97739.66;;;23.75;46.26
18569;BME280;14780;48.316;-1.050;2022-11-15T04:07:38;97749.84;;;23.69;46.19
18569;BME280;14780;48.316;-1.050;2022-11-15T04:10:23;97756.13;;;23.70;46.37
18569;BME280;14780;48.316;-1.050;2022-11-15T04:13:08;97764.53;;;23.73;46.32
18569;BME280;14780;48.316;-1.050;2022-11-15T04:15:53;97766.44;;;23.73;46.17
18569;BME280;14780;48.316;-1.050;2022-11-15T04:18:37;97767.25;;;23.73;46.28
18569;BME280;14780;48.316;-1.050;2022-11-15T04:21:22;97753.59;;;23.73;46.25
18569;BME280;14780;48.316;-1.050;2022-11-15T04:24:25;97742.97;;;23.72;46.14
18569;BME280;14780;48.316;-1.050;2022-11-15T04:27:10;97743.78;;;23.72;46.34
18569;BME280;14780;48.316;-1.050;2022-11-15T04:29:57;97730.63;;;23.74;46.29
18569;BME280;14780;48.316;-1.050;2022-11-15T04:32:42;97721.44;;;23.70;46.33
18569;BME280;14780;48.316;-1.050;2022-11-15T04:35:26;97720.84;;;23.73;46.33
18569;BME280;14780;48.316;-1.050;2022-11-15T04:38:12;97718.72;;;23.70;46.10
18569;BME280;14780;48.316;-1.050;2022-11-15T04:40:57;97704.94;;;23.75;46.19
18569;BME280;14780;48.316;-1.050;2022-11-15T04:43:41;97717.19;;;23.78;46.25
18569;BME280;14780;48.316;-1.050;2022-11-15T04:46:26;97704.94;;;23.75;46.11
18569;BME280;14780;48.316;-1.050;2022-11-15T04:49:11;97698.69;;;23.75;46.17
18569;BME280;14780;48.316;-1.050;2022-11-15T04:51:56;97705.47;;;23.77;46.16
18569;BME280;14780;48.316;-1.050;2022-11-15T04:54:41;97701.09;;;23.76;46.10
18569;BME280;14780;48.316;-1.050;2022-11-15T04:57:26;97693.22;;;23.75;46.06
18569;BME280;14780;48.316;-1.050;2022-11-15T05:00:14;97685.34;;;23.73;46.18
18569;BME280;14780;48.316;-1.050;2022-11-15T05:02:59;97683.81;;;23.67;46.21
18569;BME280;14780;48.316;-1.050;2022-11-15T05:06:03;97661.56;;;23.74;46.15
18569;BME280;14780;48.316;-1.050;2022-11-15T05:08:47;97661.56;;;23.74;46.14
18569;BME280;14780;48.316;-1.050;2022-11-15T05:11:32;97657.72;;;23.75;46.11
18569;BME280;14780;48.316;-1.050;2022-11-15T05:14:17;97644.88;;;23.75;45.99
18569;BME280;14780;48.316;-1.050;2022-11-15T05:17:01;97634.75;;;23.76;46.12
18569;BME280;14780;48.316;-1.050;2022-11-15T05:19:46;97630.09;;;23.76;46.04
18569;BME280;14780;48.316;-1.050;2022-11-15T05:22:31;97629.31;;;23.76;45.99
18569;BME280;14780;48.316;-1.050;2022-11-15T05:25:15;97613.69;;;23.76;45.92
18569;BME280;14780;48.316;-1.050;2022-11-15T05:28:00;97620.81;;;23.77;45.96
18569;BME280;14780;48.316;-1.050;2022-11-15T05:30:45;97609.69;;;23.74;45.98
18569;BME280;14780;48.316;-1.050;2022-11-15T05:33:30;97609.88;;;23.77;45.94
18569;BME280;14780;48.316;-1.050;2022-11-15T05:36:29;97598.44;;;23.75;46.02
18569;BME280;14780;48.316;-1.050;2022-11-15T05:39:16;97600.88;;;23.77;46.00
18569;BME280;14780;48.316;-1.050;2022-11-15T05:42:11;97591.06;;;23.76;46.09
18569;BME280;14780;48.316;-1.050;2022-11-15T05:44:57;97599.75;;;23.78;45.95
18569;BME280;14780;48.316;-1.050;2022-11-15T05:47:44;97596.81;;;23.74;45.95
18569;BME280;14780;48.316;-1.050;2022-11-15T05:50:29;97591.66;;;23.73;45.85
18569;BME280;14780;48.316;-1.050;2022-11-15T05:53:17;97596.72;;;23.79;45.87
18569;BME280;14780;48.316;-1.050;2022-11-15T05:56:04;97581.94;;;23.80;45.87
18569;BME280;14780;48.316;-1.050;2022-11-15T05:58:51;97569.41;;;23.79;45.89
18569;BME280;14780;48.316;-1.050;2022-11-15T06:01:36;97575.47;;;23.76;45.71
18569;BME280;14780;48.316;-1.050;2022-11-15T06:04:22;97576.97;;;23.82;45.73
18569;BME280;14780;48.316;-1.050;2022-11-15T06:07:06;97559.47;;;23.83;45.70
18569;BME280;14780;48.316;-1.050;2022-11-15T06:09:51;97574.25;;;23.82;45.64
18569;BME280;14780;48.316;-1.050;2022-11-15T06:12:35;97575.38;;;23.81;45.63
18569;BME280;14780;48.316;-1.050;2022-11-15T06:15:20;97566.78;;;23.74;45.79
18569;BME280;14780;48.316;-1.050;2022-11-15T06:18:05;97549.19;;;23.80;45.65
18569;BME280;14780;48.316;-1.050;2022-11-15T06:20:50;97548.16;;;23.76;45.68
18569;BME280;14780;48.316;-1.050;2022-11-15T06:23:35;97560.09;;;23.80;45.76
18569;BME280;14780;48.316;-1.050;2022-11-15T06:26:20;97548.69;;;23.78;45.79
18569;BME280;14780;48.316;-1.050;2022-11-15T06:29:05;97554.34;;;23.82;45.79
18569;BME280;14780;48.316;-1.050;2022-11-15T06:31:50;97557.38;;;23.80;45.80
18569;BME280;14780;48.316;-1.050;2022-11-15T06:34:35;97548.88;;;23.82;45.77
18569;BME280;14780;48.316;-1.050;2022-11-15T06:37:20;97535.53;;;23.80;45.74
18569;BME280;14780;48.316;-1.050;2022-11-15T06:40:06;97542.09;;;23.79;45.76
18569;BME280;14780;48.316;-1.050;2022-11-15T06:42:51;97536.66;;;23.79;45.84
18569;BME280;14780;48.316;-1.050;2022-11-15T06:45:41;97532.41;;;23.73;45.80
18569;BME280;14780;48.316;-1.050;2022-11-15T06:48:26;97531.66;;;23.81;45.63
18569;BME280;14780;48.316;-1.050;2022-11-15T06:51:11;97525.91;;;23.83;45.77
18569;BME280;14780;48.316;-1.050;2022-11-15T06:53:56;97537.63;;;23.83;45.72
18569;BME280;14780;48.316;-1.050;2022-11-15T06:56:40;97520.75;;;23.81;45.67
18569;BME280;14780;48.316;-1.050;2022-11-15T06:59:25;97525.91;;;23.83;45.75
18569;BME280;14780;48.316;-1.050;2022-11-15T07:02:13;97518.00;;;23.81;45.67
18569;BME280;14780;48.316;-1.050;2022-11-15T07:04:58;97528.94;;;23.81;45.68
18569;BME280;14780;48.316;-1.050;2022-11-15T07:07:42;97522.34;;;23.82;45.68
18569;BME280;14780;48.316;-1.050;2022-11-15T07:10:28;97526.84;;;23.78;45.65
18569;BME280;14780;48.316;-1.050;2022-11-15T07:13:13;97532.50;;;23.82;45.71
18569;BME280;14780;48.316;-1.050;2022-11-15T07:15:57;97516.09;;;23.82;45.59
18569;BME280;14780;48.316;-1.050;2022-11-15T07:18:42;97510.31;;;23.83;45.55
18569;BME280;14780;48.316;-1.050;2022-11-15T07:21:26;97515.22;;;23.86;45.55
18569;BME280;14780;48.316;-1.050;2022-11-15T07:24:11;97514.38;;;23.86;45.59
18569;BME280;14780;48.316;-1.050;2022-11-15T07:26:56;97504.06;;;23.83;45.66
18569;BME280;14780;48.316;-1.050;2022-11-15T07:29:40;97510.66;;;23.82;45.59
18569;BME280;14780;48.316;-1.050;2022-11-15T07:32:25;97503.88;;;23.79;45.66
18569;BME280;14780;48.316;-1.050;2022-11-15T07:35:10;97504.53;;;23.85;45.66
18569;BME280;14780;48.316;-1.050;2022-11-15T07:38:02;97508.69;;;23.82;45.63
18569;BME280;14780;48.316;-1.050;2022-11-15T07:40:55;97486.06;;;23.82;45.58
18569;BME280;14780;48.316;-1.050;2022-11-15T07:43:40;97496.66;;;23.83;45.58
18569;BME280;14780;48.316;-1.050;2022-11-15T07:46:24;97485.72;;;23.83;45.49
18569;BME280;14780;48.316;-1.050;2022-11-15T07:49:09;97475.94;;;23.82;45.63
18569;BME280;14780;48.316;-1.050;2022-11-15T07:51:53;97472.91;;;23.84;45.43
18569;BME280;14780;48.316;-1.050;2022-11-15T07:54:38;97492.00;;;23.84;45.55
18569;BME280;14780;48.316;-1.050;2022-11-15T07:57:23;97462.28;;;23.82;45.55
18569;BME280;14780;48.316;-1.050;2022-11-15T08:00:08;97473.19;;;23.82;45.48
18569;BME280;14780;48.316;-1.050;2022-11-15T08:03:00;97481.19;;;23.79;45.49
18569;BME280;14780;48.316;-1.050;2022-11-15T08:05:50;97483.63;;;23.80;45.55
18569;BME280;14780;48.316;-1.050;2022-11-15T08:08:35;97468.84;;;23.81;45.56
18569;BME280;14780;48.316;-1.050;2022-11-15T08:11:20;97463.69;;;23.80;45.59
18569;BME280;14780;48.316;-1.050;2022-11-15T08:14:04;97464.22;;;23.82;45.41
18569;BME280;14780;48.316;-1.050;2022-11-15T08:16:49;97465.53;;;23.84;45.46
18569;BME280;14780;48.316;-1.050;2022-11-15T08:19:34;97452.66;;;23.85;45.49
18569;BME280;14780;48.316;-1.050;2022-11-15T08:22:18;97458.94;;;23.85;45.42
18569;BME280;14780;48.316;-1.050;2022-11-15T08:25:04;97439.00;;;23.85;45.38
18569;BME280;14780;48.316;-1.050;2022-11-15T08:27:52;97457.84;;;23.86;45.45
18569;BME280;14780;48.316;-1.050;2022-11-15T08:30:39;97453.47;;;23.85;45.40
18569;BME280;14780;48.316;-1.050;2022-11-15T08:33:27;97459.53;;;23.82;45.47
18569;BME280;14780;48.316;-1.050;2022-11-15T08:36:14;97456.63;;;23.79;45.59
18569;BME280;14780;48.316;-1.050;2022-11-15T08:39:00;97464.41;;;23.85;45.45
18569;BME280;14780;48.316;-1.050;2022-11-15T08:41:44;97465.00;;;23.82;45.56
18569;BME280;14780;48.316;-1.050;2022-11-15T08:44:29;97466.13;;;23.81;45.50
18569;BME280;14780;48.316;-1.050;2022-11-15T08:47:13;97464.41;;;23.85;45.49
18569;BME280;14780;48.316;-1.050;2022-11-15T08:49:58;97457.34;;;23.84;45.35
18569;BME280;14780;48.316;-1.050;2022-11-15T08:52:43;97474.50;;;23.85;45.52
18569;BME280;14780;48.316;-1.050;2022-11-15T08:55:28;97455.69;;;23.83;45.53
18569;BME280;14780;48.316;-1.050;2022-11-15T08:58:14;97431.44;;;23.38;46.62
18569;BME280;14780;48.316;-1.050;2022-11-15T09:00:59;97432.47;;;23.15;47.00
18569;BME280;14780;48.316;-1.050;2022-11-15T09:03:43;97435.41;;;23.19;47.02
18569;BME280;14780;48.316;-1.050;2022-11-15T09:06:29;97420.75;;;23.15;47.31
18569;BME280;14780;48.316;-1.050;2022-11-15T09:09:14;97405.78;;;23.26;47.13
18569;BME280;14780;48.316;-1.050;2022-11-15T09:11:59;97406.63;;;23.13;47.53
18569;BME280;14780;48.316;-1.050;2022-11-15T09:14:43;97402.78;;;23.14;47.49
18569;BME280;14780;48.316;-1.050;2022-11-15T09:17:28;97392.38;;;23.16;47.06
18569;BME280;14780;48.316;-1.050;2022-11-15T09:20:12;97393.19;;;23.16;47.10
18569;BME280;14780;48.316;-1.050;2022-11-15T09:23:04;97388.00;;;23.15;47.13
18569;BME280;14780;48.316;-1.050;2022-11-15T09:25:49;97395.69;;;23.13;47.21
18569;BME280;14780;48.316;-1.050;2022-11-15T09:28:34;97384.78;;;23.13;47.16
18569;BME280;14780;48.316;-1.050;2022-11-15T09:31:19;97394.28;;;23.15;47.24
18569;BME280;14780;48.316;-1.050;2022-11-15T09:34:03;97377.31;;;23.05;47.37
18569;BME280;14780;48.316;-1.050;2022-11-15T09:36:48;97397.84;;;23.02;47.63
18569;BME280;14780;48.316;-1.050;2022-11-15T09:39:33;97388.59;;;23.12;47.47
18569;BME280;14780;48.316;-1.050;2022-11-15T09:45:59;97385.88;;;23.12;47.60
18569;BME280;14780;48.316;-1.050;2022-11-15T09:51:40;97389.22;;;23.09;47.21
18569;BME280;14780;48.316;-1.050;2022-11-15T09:54:35;97372.66;;;23.05;47.41
18569;BME280;14780;48.316;-1.050;2022-11-15T10:00:39;97367.31;;;23.14;47.25
18569;BME280;14780;48.316;-1.050;2022-11-15T10:03:35;97376.72;;;23.08;47.81
18569;BME280;14780;48.316;-1.050;2022-11-15T10:06:26;97368.03;;;23.06;47.52
18569;BME280;14780;48.316;-1.050;2022-11-15T10:09:23;97371.06;;;23.04;47.75
18569;BME280;14780;48.316;-1.050;2022-11-15T10:12:09;97362.59;;;23.06;47.64
18569;BME280;14780;48.316;-1.050;2022-11-15T10:15:14;97372.88;;;23.09;47.49
18569;BME280;14780;48.316;-1.050;2022-11-15T10:18:13;97370.75;;;23.06;47.67
18569;BME280;14780;48.316;-1.050;2022-11-15T10:21:06;97364.94;;;22.99;47.54
18569;BME280;14780;48.316;-1.050;2022-11-15T10:23:58;97370.13;;;23.09;47.39
18569;BME280;14780;48.316;-1.050;2022-11-15T10:26:49;97359.97;;;23.01;47.89
18569;BME280;14780;48.316;-1.050;2022-11-15T10:29:34;97365.13;;;23.02;48.13
18569;BME280;14780;48.316;-1.050;2022-11-15T10:32:22;97355.28;;;23.01;48.12
18569;BME280;14780;48.316;-1.050;2022-11-15T10:35:29;97354.69;;;23.04;48.10
18569;BME280;14780;48.316;-1.050;2022-11-15T10:38:14;97357.13;;;23.06;48.09
18569;BME280;14780;48.316;-1.050;2022-11-15T10:41:07;97350.03;;;23.05;48.19
18569;BME280;14780;48.316;-1.050;2022-11-15T10:47:30;97338.75;;;22.98;48.31
18569;BME280;14780;48.316;-1.050;2022-11-15T10:50:32;97328.16;;;22.96;48.30
18569;BME280;14780;48.316;-1.050;2022-11-15T10:53:19;97342.19;;;22.90;48.12
18569;BME280;14780;48.316;-1.050;2022-11-15T10:56:07;97344.63;;;22.91;48.09
18569;BME280;14780;48.316;-1.050;2022-11-15T10:58:57;97338.06;;;22.92;48.05
18569;BME280;14780;48.316;-1.050;2022-11-15T11:01:46;97337.75;;;22.94;48.09
18569;BME280;14780;48.316;-1.050;2022-11-15T11:04:50;97339.22;;;23.57;46.44
18569;BME280;14780;48.316;-1.050;2022-11-15T11:07:35;97336.06;;;23.63;46.32
18569;BME280;14780;48.316;-1.050;2022-11-15T11:10:22;97336.06;;;23.63;46.17
18569;BME280;14780;48.316;-1.050;2022-11-15T11:13:14;97329.50;;;23.64;46.11
18569;BME280;14780;48.316;-1.050;2022-11-15T11:16:22;97325.66;;;23.65;46.08
18569;BME280;14780;48.316;-1.050;2022-11-15T11:19:08;97321.78;;;23.66;46.01
18569;BME280;14780;48.316;-1.050;2022-11-15T11:22:25;97312.00;;;23.65;45.82
18569;BME280;14780;48.316;-1.050;2022-11-15T11:25:35;97306.53;;;23.65;46.10
18569;BME280;14780;48.316;-1.050;2022-11-15T11:34:58;97285.31;;;23.62;46.39
18569;BME280;14780;48.316;-1.050;2022-11-15T11:37:49;97282.91;;;23.61;46.44
18569;BME280;14780;48.316;-1.050;2022-11-15T11:40:43;97281.97;;;23.65;46.61
18569;BME280;14780;48.316;-1.050;2022-11-15T11:43:45;97284.22;;;23.63;46.71
18569;BME280;14780;48.316;-1.050;2022-11-15T11:49:47;97269.91;;;23.66;46.78
18569;BME280;14780;48.316;-1.050;2022-11-15T11:52:41;97262.22;;;23.68;47.09
18569;BME280;14780;48.316;-1.050;2022-11-15T11:55:42;97267.66;;;23.68;46.91
18569;BME280;14780;48.316;-1.050;2022-11-15T11:58:43;97273.13;;;23.68;46.83
18569;BME280;14780;48.316;-1.050;2022-11-15T12:01:34;97268.31;;;23.65;46.81
18569;BME280;14780;48.316;-1.050;2022-11-15T12:04:30;97254.34;;;23.67;47.12
18569;BME280;14780;48.316;-1.050;2022-11-15T12:07:24;97253.06;;;23.64;47.25
18569;BME280;14780;48.316;-1.050;2022-11-15T12:10:23;97240.19;;;23.65;47.22
18569;BME280;14780;48.316;-1.050;2022-11-15T12:13:16;97242.13;;;23.64;47.17
18569;BME280;14780;48.316;-1.050;2022-11-15T12:19:08;97242.91;;;23.65;47.40
18569;BME280;14780;48.316;-1.050;2022-11-15T12:31:11;97210.50;;;23.63;47.15
18569;BME280;14780;48.316;-1.050;2022-11-15T12:34:04;97206.13;;;23.62;47.28
18569;BME280;14780;48.316;-1.050;2022-11-15T12:36:51;97204.53;;;23.61;47.17
18569;BME280;14780;48.316;-1.050;2022-11-15T12:40:16;97195.84;;;23.59;47.07
18569;BME280;14780;48.316;-1.050;2022-11-15T12:43:38;97196.97;;;23.58;47.04
18569;BME280;14780;48.316;-1.050;2022-11-15T12:52:11;97175.59;;;23.52;46.76
18569;BME280;14780;48.316;-1.050;2022-11-15T12:54:58;97172.88;;;23.52;46.80
18569;BME280;14780;48.316;-1.050;2022-11-15T12:57:44;97168.22;;;23.52;46.89
18569;BME280;14780;48.316;-1.050;2022-11-15T13:03:24;97159.38;;;23.55;46.89
18569;BME280;14780;48.316;-1.050;2022-11-15T13:06:33;97157.47;;;23.56;47.00
18569;BME280;14780;48.316;-1.050;2022-11-15T13:17:57;97161.31;;;23.55;47.17
18569;BME280;14780;48.316;-1.050;2022-11-15T13:20:45;97149.28;;;23.56;47.06
18569;BME280;14780;48.316;-1.050;2022-11-15T13:23:30;97149.28;;;23.56;47.11
18569;BME280;14780;48.316;-1.050;2022-11-15T13:26:15;97145.72;;;23.55;47.13
18569;BME280;14780;48.316;-1.050;2022-11-15T13:29:13;97147.34;;;23.56;47.16
18569;BME280;14780;48.316;-1.050;2022-11-15T13:31:59;97147.34;;;23.56;47.29
18569;BME280;14780;48.316;-1.050;2022-11-15T13:34:46;97150.09;;;23.56;47.29
18569;BME280;14780;48.316;-1.050;2022-11-15T13:37:32;97139.16;;;23.56;47.05
18569;BME280;14780;48.316;-1.050;2022-11-15T13:40:29;97141.91;;;23.56;47.09
18569;BME280;14780;48.316;-1.050;2022-11-15T13:46:18;97137.53;;;23.55;47.28
18569;BME280;14780;48.316;-1.050;2022-11-15T13:49:07;97141.09;;;23.56;47.32
18569;BME280;14780;48.316;-1.050;2022-11-15T13:51:54;97126.63;;;23.55;47.13
18569;BME280;14780;48.316;-1.050;2022-11-15T14:00:39;97125.34;;;23.53;47.22
18569;BME280;14780;48.316;-1.050;2022-11-15T14:03:28;97136.56;;;23.51;47.02
18569;BME280;14780;48.316;-1.050;2022-11-15T14:06:19;97146.38;;;23.52;47.22
18569;BME280;14780;48.316;-1.050;2022-11-15T14:11:56;97142.03;;;23.51;47.27
18569;BME280;14780;48.316;-1.050;2022-11-15T14:14:47;97142.03;;;23.51;47.19
18569;BME280;14780;48.316;-1.050;2022-11-15T14:17:37;97130.31;;;23.51;47.30
18569;BME280;14780;48.316;-1.050;2022-11-15T14:20:39;97150.22;;;23.51;47.16
18569;BME280;14780;48.316;-1.050;2022-11-15T14:23:25;97166.13;;;23.49;47.34
18569;BME280;14780;48.316;-1.050;2022-11-15T14:26:48;97155.19;;;23.49;47.29
18569;BME280;14780;48.316;-1.050;2022-11-15T14:29:33;97166.13;;;23.49;47.29
18569;BME280;14780;48.316;-1.050;2022-11-15T14:32:27;97156.31;;;23.48;47.25
18569;BME280;14780;48.316;-1.050;2022-11-15T14:35:16;97140.75;;;23.49;47.28
18569;BME280;14780;48.316;-1.050;2022-11-15T14:38:02;97153.59;;;23.48;47.14
18569;BME280;14780;48.316;-1.050;2022-11-15T14:40:47;97152.78;;;23.48;47.28
18569;BME280;14780;48.316;-1.050;2022-11-15T14:43:32;97160.66;;;23.49;47.19
18569;BME280;14780;48.316;-1.050;2022-11-15T14:46:17;97165.31;;;23.49;47.14
18569;BME280;14780;48.316;-1.050;2022-11-15T14:49:02;97159.06;;;23.48;47.21
18569;BME280;14780;48.316;-1.050;2022-11-15T14:51:47;97165.31;;;23.49;47.21
18569;BME280;14780;48.316;-1.050;2022-11-15T14:54:31;97173.78;;;23.47;47.26
18569;BME280;14780;48.316;-1.050;2022-11-15T14:57:16;97157.13;;;23.49;47.26
18569;BME280;14780;48.316;-1.050;2022-11-15T15:00:02;97161.13;;;23.51;47.11
18569;BME280;14780;48.316;-1.050;2022-11-15T15:02:48;97157.28;;;23.52;47.24
18569;BME280;14780;48.316;-1.050;2022-11-15T15:05:37;97158.91;;;23.53;47.21
18569;BME280;14780;48.316;-1.050;2022-11-15T15:08:22;97163.75;;;23.56;47.29
18569;BME280;14780;48.316;-1.050;2022-11-15T15:11:33;97156.34;;;23.57;47.26
18569;BME280;14780;48.316;-1.050;2022-11-15T15:14:18;97161.00;;;23.56;47.25
18569;BME280;14780;48.316;-1.050;2022-11-15T15:17:02;97159.88;;;23.57;47.34
18569;BME280;14780;48.316;-1.050;2022-11-15T15:19:48;97168.06;;;23.57;47.39
18569;BME280;14780;48.316;-1.050;2022-11-15T15:22:33;97172.72;;;23.57;47.31
18569;BME280;14780;48.316;-1.050;2022-11-15T15:25:28;97164.84;;;23.55;47.41
18569;BME280;14780;48.316;-1.050;2022-11-15T15:28:14;97175.75;;;23.55;47.32
18569;BME280;14780;48.316;-1.050;2022-11-15T15:30:58;97178.47;;;23.55;47.35
18569;BME280;14780;48.316;-1.050;2022-11-15T15:33:43;97179.59;;;23.54;47.31
18569;BME280;14780;48.316;-1.050;2022-11-15T15:36:28;97183.47;;;23.53;47.38
18569;BME280;14780;48.316;-1.050;2022-11-15T15:39:13;97190.03;;;23.52;47.35
18569;BME280;14780;48.316;-1.050;2022-11-15T15:41:57;97195.03;;;23.50;47.34
18569;BME280;14780;48.316;-1.050;2022-11-15T15:44:42;97202.09;;;23.51;47.29
18569;BME280;14780;48.316;-1.050;2022-11-15T15:47:27;97198.88;;;23.49;47.37
18569;BME280;14780;48.316;-1.050;2022-11-15T15:53:11;97197.28;;;23.48;47.42
18569;BME280;14780;48.316;-1.050;2022-11-15T15:55:56;97189.38;;;23.47;47.25
18569;BME280;14780;48.316;-1.050;2022-11-15T15:58:41;97199.47;;;23.46;47.26
18569;BME280;14780;48.316;-1.050;2022-11-15T16:01:26;97190.50;;;23.46;47.24
18569;BME280;14780;48.316;-1.050;2022-11-15T16:04:10;97196.28;;;23.44;47.32
18569;BME280;14780;48.316;-1.050;2022-11-15T16:07:00;97191.94;;;23.43;47.27
18569;BME280;14780;48.316;-1.050;2022-11-15T16:09:45;97205.59;;;23.43;47.32
18569;BME280;14780;48.316;-1.050;2022-11-15T16:12:45;97202.38;;;23.42;47.23
18569;BME280;14780;48.316;-1.050;2022-11-15T16:15:31;97203.47;;;23.40;47.17
18569;BME280;14780;48.316;-1.050;2022-11-15T16:18:17;97199.94;;;23.40;47.08
18569;BME280;14780;48.316;-1.050;2022-11-15T16:21:02;97192.06;;;23.38;47.30
18569;BME280;14780;48.316;-1.050;2022-11-15T16:23:46;97196.41;;;23.39;47.32